Time;durP1;ratioP1;P1;durP2;ratioP2;P2;SDS_P1;SDS_P2;PMS_P1;PMS_P2;Temp;Humidity;BMP_temperature;BMP_pressure;BME280_temperature;BME280_humidity;BME280_pressure;Samples;Min_cycle;Max_cycle;Signal;HPM_P1;HPM_P2
2023/09/23 00:01:15;;;;;;;4.15;1.45;;;11.30;99.90;;;;;;5101575;28;20046;-68
2023/09/23 00:03:41;;;;;;;2.17;1.30;;;11.30;99.90;;;;;;5109316;28;20031;-68
2023/09/23 00:06:07;;;;;;;2.35;1.45;;;11.20;99.90;;;;;;5097685;28;20035;-68
2023/09/23 00:08:33;;;;;;;1.80;1.27;;;11.20;99.90;;;;;;5100179;28;20396;-68
2023/09/23 00:10:58;;;;;;;2.00;1.10;;;11.20;99.90;;;;;;5103847;28;20111;-68
2023/09/23 00:13:25;;;;;;;2.33;1.30;;;11.30;99.90;;;;;;5110836;28;20023;-68
2023/09/23 00:15:51;;;;;;;3.72;1.00;;;11.30;99.90;;;;;;5101105;28;20056;-68
2023/09/23 00:18:17;;;;;;;1.52;0.90;;;11.30;99.90;;;;;;5103562;28;20030;-68
2023/09/23 00:20:47;;;;;;;3.70;1.15;;;11.40;99.90;;;;;;5106022;28;20035;-68
2023/09/23 00:23:14;;;;;;;3.65;0.90;;;11.40;99.90;;;;;;5101244;28;20024;-68
2023/09/23 00:25:39;;;;;;;2.72;1.30;;;11.50;99.90;;;;;;5099223;28;20048;-68
2023/09/23 00:28:11;;;;;;;2.25;1.00;;;11.50;99.90;;;;;;5106373;28;20019;-68
2023/09/23 00:30:37;;;;;;;3.47;1.20;;;11.50;99.90;;;;;;5104337;28;20024;-68
2023/09/23 00:33:03;;;;;;;3.65;0.95;;;11.50;99.90;;;;;;5095429;28;20035;-68
2023/09/23 00:35:29;;;;;;;1.15;1.00;;;11.50;99.90;;;;;;5099987;28;20023;-68
2023/09/23 00:37:55;;;;;;;1.55;0.80;;;11.50;99.90;;;;;;5108645;28;20038;-68
2023/09/23 00:40:27;;;;;;;1.30;0.73;;;11.50;99.90;;;;;;5095834;28;20051;-68
2023/09/23 00:42:56;;;;;;;1.20;0.77;;;11.50;99.90;;;;;;5097424;28;20024;-68
2023/09/23 00:45:25;;;;;;;1.40;0.70;;;11.40;99.90;;;;;;5096798;28;20494;-68
2023/09/23 00:47:52;;;;;;;2.65;0.90;;;11.40;99.90;;;;;;5108847;28;20031;-68
2023/09/23 00:50:22;;;;;;;2.60;0.80;;;11.30;99.90;;;;;;5098266;28;20107;-68
2023/09/23 00:52:51;;;;;;;;;;;11.30;99.90;;;;;;5092659;28;20152;-68
2023/09/23 00:55:20;;;;;;;1.67;1.00;;;11.20;99.90;;;;;;5108017;28;19904;-68
2023/09/23 00:57:48;;;;;;;2.10;0.60;;;11.10;99.90;;;;;;5093558;28;20020;-69
2023/09/23 01:00:23;;;;;;;3.67;0.90;;;11.10;99.90;;;;;;5101013;28;20035;-68
2023/09/23 01:02:49;;;;;;;2.85;0.70;;;11.10;99.90;;;;;;5098231;28;20020;-67
2023/09/23 01:05:16;;;;;;;1.38;0.70;;;11.00;99.90;;;;;;5102218;28;20081;-68
2023/09/23 01:07:45;;;;;;;1.35;0.85;;;11.00;99.90;;;;;;5097228;28;20031;-68
2023/09/23 01:10:12;;;;;;;2.47;0.70;;;10.90;99.90;;;;;;5103570;28;20037;-67
2023/09/23 01:12:37;;;;;;;1.13;0.60;;;10.90;99.90;;;;;;5107362;28;20070;-68
2023/09/23 01:15:05;;;;;;;1.45;0.70;;;10.90;99.90;;;;;;5091640;28;20056;-68
2023/09/23 01:17:31;;;;;;;2.28;0.95;;;10.80;99.90;;;;;;5096345;28;20465;-67
2023/09/23 01:19:57;;;;;;;2.47;0.63;;;10.80;99.90;;;;;;5104955;28;20028;-67
2023/09/23 01:22:27;;;;;;;0.77;0.77;;;10.80;99.90;;;;;;5107101;28;20139;-67
2023/09/23 01:24:53;;;;;;;1.23;0.75;;;10.80;99.90;;;;;;5094331;28;20376;-68
2023/09/23 01:27:19;;;;;;;2.03;0.38;;;10.70;99.90;;;;;;5107422;28;20031;-68
2023/09/23 01:29:44;;;;;;;3.20;0.90;;;10.70;99.90;;;;;;5107519;28;20484;-68
2023/09/23 01:32:28;;;;;;;0.73;0.50;;;10.70;99.90;;;;;;5105802;28;20034;-67
2023/09/23 01:34:54;;;;;;;1.83;0.75;;;10.60;99.90;;;;;;5086780;28;20368;-67
2023/09/23 01:37:21;;;;;;;1.35;0.85;;;10.60;99.90;;;;;;5103326;28;20023;-67
2023/09/23 01:39:47;;;;;;;1.52;0.63;;;10.50;99.90;;;;;;5109734;28;20170;-67
2023/09/23 01:42:13;;;;;;;0.60;0.60;;;10.50;99.90;;;;;;5098474;28;20070;-67
2023/09/23 01:44:39;;;;;;;0.80;0.52;;;10.40;99.90;;;;;;5097442;28;20064;-67
2023/09/23 01:47:05;;;;;;;1.65;0.43;;;10.40;99.90;;;;;;5096289;28;20366;-67
2023/09/23 01:49:31;;;;;;;1.15;0.90;;;10.40;99.90;;;;;;5089882;28;20077;-68
2023/09/23 01:51:57;;;;;;;1.42;0.57;;;10.40;99.90;;;;;;5104574;28;20027;-67
2023/09/23 01:54:22;;;;;;;2.47;0.60;;;10.40;99.90;;;;;;5108431;28;20023;-67
2023/09/23 01:56:48;;;;;;;0.60;0.50;;;10.40;99.90;;;;;;5109908;28;20028;-68
2023/09/23 01:59:14;;;;;;;1.10;0.60;;;10.30;99.90;;;;;;5098074;28;20039;-68
2023/09/23 02:01:41;;;;;;;1.77;0.80;;;10.30;99.90;;;;;;5107945;28;20491;-68
2023/09/23 02:04:08;;;;;;;1.02;0.57;;;10.30;99.90;;;;;;5110990;28;20028;-68
2023/09/23 02:06:41;;;;;;;1.40;0.60;;;10.30;99.90;;;;;;5097757;28;20032;-68
2023/09/23 02:09:09;;;;;;;0.98;0.63;;;10.20;99.90;;;;;;5100220;28;20028;-67
2023/09/23 02:11:37;;;;;;;1.13;0.57;;;10.20;99.90;;;;;;5101348;28;20076;-68
2023/09/23 02:14:06;;;;;;;0.80;0.77;;;10.20;99.90;;;;;;5113501;28;20031;-67
2023/09/23 02:16:33;;;;;;;2.22;0.57;;;10.10;99.90;;;;;;5102041;28;20027;-67
2023/09/23 02:18:59;;;;;;;3.55;0.50;;;10.00;99.90;;;;;;5105031;28;20024;-67
2023/09/23 02:21:27;;;;;;;1.10;0.60;;;10.00;99.90;;;;;;5108558;28;20042;-67
2023/09/23 02:23:55;;;;;;;2.58;0.82;;;10.00;99.90;;;;;;5093357;28;20024;-67
2023/09/23 02:26:22;;;;;;;3.55;0.82;;;10.00;99.90;;;;;;5105132;28;20023;-67
2023/09/23 02:28:48;;;;;;;1.10;0.63;;;10.00;99.90;;;;;;5108061;28;20028;-67
2023/09/23 02:31:14;;;;;;;0.40;0.30;;;10.00;99.90;;;;;;5103722;28;20701;-67
2023/09/23 02:33:40;;;;;;;1.50;0.70;;;10.00;99.90;;;;;;5100989;28;20464;-67
2023/09/23 02:36:06;;;;;;;0.80;0.50;;;10.10;99.90;;;;;;5107750;28;20034;-67
2023/09/23 02:38:32;;;;;;;0.47;0.45;;;10.10;99.90;;;;;;5107346;28;20027;-67
2023/09/23 02:41:03;;;;;;;1.17;0.90;;;10.20;99.90;;;;;;5097037;28;20036;-67
2023/09/23 02:43:29;;;;;;;1.02;0.63;;;10.20;99.90;;;;;;5098429;28;20024;-67
2023/09/23 02:46:00;;;;;;;0.55;0.50;;;10.20;99.90;;;;;;5092710;28;20508;-68
2023/09/23 02:48:28;;;;;;;2.17;0.50;;;10.20;99.90;;;;;;5094128;28;20071;-68
2023/09/23 02:50:57;;;;;;;0.63;0.57;;;10.20;99.90;;;;;;5094876;28;20109;-68
2023/09/23 02:53:23;;;;;;;1.27;0.40;;;10.20;99.90;;;;;;5096087;28;20147;-68
2023/09/23 02:55:52;;;;;;;3.03;0.80;;;10.20;99.90;;;;;;5092809;28;20499;-68
2023/09/23 02:58:22;;;;;;;0.60;0.40;;;10.20;99.90;;;;;;5092734;28;20439;-68
2023/09/23 03:00:57;;;;;;;1.35;0.60;;;10.10;99.90;;;;;;5093648;28;20431;-68
2023/09/23 03:03:23;;;;;;;1.98;0.50;;;10.10;99.90;;;;;;5095955;28;20056;-68
2023/09/23 03:05:54;;;;;;;1.70;0.50;;;10.10;99.90;;;;;;5092915;28;20081;-67
2023/09/23 03:08:22;;;;;;;2.25;0.70;;;10.00;99.90;;;;;;5091899;28;20028;-67
2023/09/23 03:10:49;;;;;;;2.03;0.80;;;10.00;99.90;;;;;;5094757;28;20452;-68
2023/09/23 03:13:17;;;;;;;1.13;0.50;;;9.90;99.90;;;;;;5091170;28;20028;-67
2023/09/23 03:15:48;;;;;;;1.13;0.60;;;9.90;99.90;;;;;;5095201;28;20020;-67
2023/09/23 03:18:27;;;;;;;0.80;0.50;;;9.90;99.90;;;;;;5091673;28;20454;-67
2023/09/23 03:20:54;;;;;;;0.98;0.77;;;9.90;99.90;;;;;;5106508;28;20393;-68
2023/09/23 03:23:20;;;;;;;0.73;0.40;;;9.90;99.90;;;;;;5101340;28;20472;-67
2023/09/23 03:25:47;;;;;;;0.73;0.73;;;9.90;99.90;;;;;;5097117;28;20035;-67
2023/09/23 03:28:17;;;;;;;1.00;0.70;;;9.90;99.90;;;;;;5104433;28;20030;-67
2023/09/23 03:30:49;;;;;;;1.02;0.82;;;9.80;99.90;;;;;;5091582;28;20024;-68
2023/09/23 03:33:21;;;;;;;2.55;0.60;;;9.80;99.90;;;;;;5103701;28;20047;-67
2023/09/23 03:35:47;;;;;;;1.80;0.90;;;9.80;99.90;;;;;;5102136;28;20020;-68
2023/09/23 03:38:13;;;;;;;2.10;0.55;;;9.80;99.90;;;;;;5106119;28;20460;-67
2023/09/23 03:40:38;;;;;;;1.58;0.57;;;9.90;99.90;;;;;;5107761;28;20028;-67
2023/09/23 03:43:05;;;;;;;0.95;0.60;;;9.80;99.90;;;;;;5095602;28;20039;-68
2023/09/23 03:45:34;;;;;;;0.70;0.70;;;9.80;99.90;;;;;;5096453;28;20051;-68
2023/09/23 03:48:00;;;;;;;1.15;0.60;;;9.70;99.90;;;;;;5100349;28;20483;-68
2023/09/23 03:50:26;;;;;;;4.18;0.70;;;9.70;99.90;;;;;;5098202;28;20034;-68
2023/09/23 03:52:52;;;;;;;1.60;0.50;;;9.70;99.90;;;;;;5100892;28;20024;-68
2023/09/23 03:55:18;;;;;;;1.40;0.60;;;9.50;99.90;;;;;;5109471;28;20384;-68
2023/09/23 03:57:44;;;;;;;1.88;0.70;;;9.50;99.90;;;;;;5100834;28;20039;-68
2023/09/23 04:00:17;;;;;;;1.52;0.80;;;9.40;99.90;;;;;;5100248;28;20023;-67
2023/09/23 04:02:47;;;;;;;1.25;0.60;;;9.40;99.90;;;;;;5103870;28;20047;-68
2023/09/23 04:05:15;;;;;;;1.25;0.60;;;9.40;99.90;;;;;;5085469;28;20434;-68
2023/09/23 04:07:49;;;;;;;1.75;0.63;;;9.40;99.90;;;;;;5097331;28;20027;-68
2023/09/23 04:10:15;;;;;;;2.25;0.63;;;9.40;99.90;;;;;;5103206;28;20107;-68
2023/09/23 04:12:42;;;;;;;2.22;0.80;;;9.40;99.90;;;;;;5108695;28;21232;-68
2023/09/23 04:15:08;;;;;;;2.40;0.80;;;9.30;99.90;;;;;;5104315;28;20051;-68
2023/09/23 04:17:34;;;;;;;0.68;0.50;;;9.30;99.90;;;;;;5100341;28;20040;-68
2023/09/23 04:20:09;;;;;;;1.00;0.60;;;9.30;99.90;;;;;;5107346;28;20034;-68
2023/09/23 04:22:36;;;;;;;3.22;0.52;;;9.30;99.90;;;;;;5106095;28;20024;-68
2023/09/23 04:25:05;;;;;;;1.67;0.57;;;9.30;99.90;;;;;;5093455;28;20787;-68
2023/09/23 04:27:32;;;;;;;3.08;0.82;;;9.30;99.90;;;;;;5098699;28;20028;-68
2023/09/23 04:29:59;;;;;;;0.80;0.70;;;9.40;99.90;;;;;;5105999;28;20037;-68
2023/09/23 04:32:25;;;;;;;0.88;0.65;;;9.40;99.90;;;;;;5105760;28;20092;-68
2023/09/23 04:34:50;;;;;;;1.08;0.60;;;9.40;99.90;;;;;;5095712;28;20028;-67
2023/09/23 04:37:16;;;;;;;0.85;0.80;;;9.40;99.90;;;;;;5099466;28;20103;-67
2023/09/23 04:39:42;;;;;;;1.92;0.77;;;9.40;99.90;;;;;;5091002;28;20035;-68
2023/09/23 04:42:07;;;;;;;1.00;0.63;;;9.40;99.90;;;;;;5097632;28;20028;-68
2023/09/23 04:44:34;;;;;;;1.67;0.60;;;9.50;99.90;;;;;;5097208;28;20038;-68
2023/09/23 04:47:00;;;;;;;2.25;0.68;;;9.50;99.90;;;;;;5095914;28;20488;-67
2023/09/23 04:49:27;;;;;;;1.30;0.68;;;9.60;99.90;;;;;;5100936;28;20024;-68
2023/09/23 04:51:52;;;;;;;0.95;0.65;;;9.60;99.90;;;;;;5096435;28;20451;-68
2023/09/23 04:54:18;;;;;;;1.58;0.68;;;9.60;99.90;;;;;;5090246;28;20024;-68
2023/09/23 04:56:44;;;;;;;3.50;0.90;;;9.60;99.90;;;;;;5093984;28;20054;-68
2023/09/23 04:59:10;;;;;;;0.55;0.50;;;9.60;99.90;;;;;;5092372;28;20418;-68
2023/09/23 05:01:37;;;;;;;1.38;0.60;;;9.60;99.90;;;;;;5096625;28;20036;-67
2023/09/23 05:04:08;;;;;;;3.00;0.90;;;9.60;99.90;;;;;;5107266;28;20376;-67
2023/09/23 05:06:36;;;;;;;1.85;0.90;;;9.60;99.90;;;;;;5108734;28;20116;-67
2023/09/23 05:09:02;;;;;;;2.08;0.57;;;9.60;99.90;;;;;;5096140;28;20033;-67
2023/09/23 05:11:28;;;;;;;0.52;0.52;;;9.70;99.90;;;;;;5098835;28;20031;-67
2023/09/23 05:13:54;;;;;;;1.95;0.60;;;9.70;99.90;;;;;;5095282;28;20020;-69
2023/09/23 05:16:19;;;;;;;1.55;0.65;;;9.80;99.90;;;;;;5098664;28;20069;-75
2023/09/23 05:18:46;;;;;;;0.50;0.50;;;9.90;99.90;;;;;;5098191;28;20027;-72
2023/09/23 05:21:13;;;;;;;2.92;0.40;;;10.00;99.90;;;;;;5107019;28;20491;-73
2023/09/23 05:23:41;;;;;;;1.95;0.70;;;10.00;99.90;;;;;;5103919;28;20032;-74
2023/09/23 05:26:07;;;;;;;1.38;0.60;;;10.00;99.90;;;;;;5102285;28;20536;-71
2023/09/23 05:28:33;;;;;;;0.88;0.55;;;10.10;99.90;;;;;;5102008;28;20020;-76
2023/09/23 05:30:59;;;;;;;1.52;0.70;;;10.20;99.90;;;;;;5110006;28;20077;-76
2023/09/23 05:33:25;;;;;;;1.20;0.40;;;10.30;99.90;;;;;;5104819;28;20145;-76
2023/09/23 05:35:52;;;;;;;1.90;0.80;;;10.30;99.90;;;;;;5106283;28;20031;-75
2023/09/23 05:38:19;;;;;;;1.85;0.60;;;10.40;99.90;;;;;;5097010;28;20121;-76
2023/09/23 05:40:46;;;;;;;0.70;0.40;;;10.40;99.90;;;;;;5095498;28;20111;-75
2023/09/23 05:43:11;;;;;;;1.80;0.55;;;10.50;99.90;;;;;;5094293;28;20028;-78
2023/09/23 05:45:37;;;;;;;2.30;0.75;;;10.70;99.90;;;;;;5093047;28;20052;-78
2023/09/23 05:48:04;;;;;;;1.58;0.90;;;10.70;99.90;;;;;;5094087;28;20413;-77
2023/09/23 05:50:31;;;;;;;0.85;0.50;;;10.80;99.90;;;;;;5094429;28;20024;-67
2023/09/23 05:52:57;;;;;;;2.22;0.70;;;10.90;99.90;;;;;;5095260;28;20028;-67
2023/09/23 05:55:23;;;;;;;3.13;0.70;;;11.00;99.90;;;;;;5091512;28;20027;-67
2023/09/23 05:57:49;;;;;;;0.65;0.52;;;11.10;99.90;;;;;;5094818;28;20023;-67
2023/09/23 06:00:15;;;;;;;1.80;0.70;;;11.00;99.90;;;;;;5102725;28;20027;-67
2023/09/23 06:02:41;;;;;;;3.95;0.70;;;11.10;99.90;;;;;;5102660;28;20122;-67
2023/09/23 06:05:07;;;;;;;0.93;0.50;;;11.10;99.90;;;;;;5092964;28;20127;-67
2023/09/23 06:07:33;;;;;;;1.27;0.60;;;11.20;99.90;;;;;;5097275;28;20027;-68
2023/09/23 06:09:59;;;;;;;1.08;0.50;;;11.20;99.90;;;;;;5106493;28;20057;-67
2023/09/23 06:12:29;;;;;;;1.15;0.70;;;11.20;99.90;;;;;;5108200;28;20031;-67
2023/09/23 06:14:59;;;;;;;1.20;0.73;;;11.30;99.90;;;;;;5094953;28;20027;-67
2023/09/23 06:17:27;;;;;;;0.73;0.70;;;11.30;99.90;;;;;;5096242;28;20032;-67
2023/09/23 06:19:56;;;;;;;1.23;0.47;;;11.30;99.90;;;;;;5078378;28;20082;-67
2023/09/23 06:22:22;;;;;;;1.35;0.52;;;11.40;99.90;;;;;;5105003;28;20465;-67
2023/09/23 06:24:50;;;;;;;0.98;0.60;;;11.50;99.90;;;;;;5098026;28;20030;-67
2023/09/23 06:27:17;;;;;;;2.25;0.80;;;11.60;99.90;;;;;;5100905;28;20031;-67
2023/09/23 06:29:43;;;;;;;1.90;0.60;;;11.80;99.90;;;;;;5110494;28;20028;-68
2023/09/23 06:32:09;;;;;;;2.53;0.65;;;11.90;99.90;;;;;;5109193;28;20031;-67
2023/09/23 06:34:35;;;;;;;3.00;0.80;;;12.00;99.90;;;;;;5100391;28;20119;-67
2023/09/23 06:37:02;;;;;;;2.67;0.88;;;11.90;99.90;;;;;;5102455;28;20024;-67
2023/09/23 06:39:28;;;;;;;2.03;0.65;;;12.00;99.90;;;;;;5112160;28;20031;-67
2023/09/23 06:41:54;;;;;;;1.92;0.70;;;12.10;99.90;;;;;;5102107;28;20387;-68
2023/09/23 06:44:19;;;;;;;1.42;0.65;;;12.10;99.90;;;;;;5103227;28;20028;-67
2023/09/23 06:46:45;;;;;;;2.38;0.70;;;12.20;99.90;;;;;;5095821;28;20055;-67
2023/09/23 06:49:11;;;;;;;1.17;0.60;;;12.30;99.90;;;;;;5105298;28;20032;-67
2023/09/23 06:51:36;;;;;;;1.40;0.68;;;12.40;99.90;;;;;;5100179;28;20457;-67
2023/09/23 06:54:02;;;;;;;1.85;0.80;;;12.50;99.90;;;;;;5093710;28;20032;-67
2023/09/23 06:56:28;;;;;;;1.95;0.60;;;12.60;99.90;;;;;;5104354;28;20032;-67
2023/09/23 06:58:54;;;;;;;0.60;0.52;;;12.60;99.90;;;;;;5097409;28;20030;-67
2023/09/23 07:01:21;;;;;;;2.55;0.70;;;12.80;99.90;;;;;;5078913;28;20112;-67
2023/09/23 07:03:47;;;;;;;1.02;0.70;;;12.90;99.90;;;;;;5110731;28;20031;-67
2023/09/23 07:06:13;;;;;;;1.40;0.77;;;13.00;99.90;;;;;;5099953;28;20023;-67
2023/09/23 07:08:38;;;;;;;2.13;0.70;;;13.10;99.90;;;;;;5100226;28;20023;-67
2023/09/23 07:11:10;;;;;;;2.33;0.70;;;13.20;99.90;;;;;;5103466;28;20472;-68
2023/09/23 07:13:36;;;;;;;4.03;0.85;;;13.30;99.90;;;;;;5112585;28;20028;-68
2023/09/23 07:16:01;;;;;;;2.63;0.70;;;13.40;99.90;;;;;;5102643;28;20453;-68
2023/09/23 07:18:28;;;;;;;2.97;0.82;;;13.50;99.90;;;;;;5103503;28;20016;-67
2023/09/23 07:20:56;;;;;;;0.85;0.68;;;13.60;99.90;;;;;;5108351;28;20376;-67
2023/09/23 07:23:22;;;;;;;2.60;0.77;;;13.80;99.90;;;;;;5103181;28;20064;-68
2023/09/23 07:25:48;;;;;;;1.75;0.70;;;13.90;99.90;;;;;;5101244;28;20051;-68
2023/09/23 07:28:13;;;;;;;0.98;0.60;;;14.10;99.90;;;;;;5088018;28;20028;-67
2023/09/23 07:30:39;;;;;;;3.22;0.77;;;14.20;99.90;;;;;;5103452;28;20137;-68
2023/09/23 07:33:05;;;;;;;2.53;0.80;;;14.30;99.90;;;;;;5095990;28;20439;-67
2023/09/23 07:35:32;;;;;;;1.02;0.65;;;14.40;99.90;;;;;;5101779;28;20027;-67
2023/09/23 07:37:59;;;;;;;1.52;0.65;;;14.50;99.90;;;;;;5108995;28;20499;-67
2023/09/23 07:40:25;;;;;;;1.48;0.45;;;14.60;99.90;;;;;;5110340;28;20204;-67
2023/09/23 07:42:51;;;;;;;2.50;0.60;;;14.70;99.90;;;;;;5098404;28;20380;-67
2023/09/23 07:45:16;;;;;;;1.08;0.60;;;14.80;99.90;;;;;;5096441;28;20043;-67
2023/09/23 07:47:42;;;;;;;2.35;0.80;;;14.90;99.90;;;;;;5094483;28;20031;-67
2023/09/23 07:50:08;;;;;;;2.30;0.50;;;15.00;99.90;;;;;;5099817;28;20470;-67
2023/09/23 07:52:34;;;;;;;4.88;0.77;;;15.10;99.90;;;;;;5101250;28;20027;-67
2023/09/23 07:55:00;;;;;;;1.92;0.57;;;15.20;99.90;;;;;;5107303;28;20108;-67
2023/09/23 07:57:26;;;;;;;0.98;0.60;;;15.20;99.90;;;;;;5102252;28;20094;-67
2023/09/23 07:59:51;;;;;;;1.30;0.73;;;15.30;99.90;;;;;;5098655;28;20463;-67
2023/09/23 08:02:17;;;;;;;2.05;1.00;;;15.30;99.90;;;;;;5082167;28;20024;-67
2023/09/23 08:04:42;;;;;;;2.92;0.75;;;15.40;99.90;;;;;;5101811;28;20028;-67
2023/09/23 08:07:08;;;;;;;1.67;0.57;;;15.50;99.90;;;;;;5094663;28;20024;-67
2023/09/23 08:09:34;;;;;;;3.28;0.60;;;15.60;99.90;;;;;;5101754;28;20088;-67
2023/09/23 08:11:59;;;;;;;1.92;0.70;;;15.60;99.90;;;;;;5108429;28;20445;-67
2023/09/23 08:14:26;;;;;;;1.73;0.73;;;15.50;99.90;;;;;;5109051;28;20020;-67
2023/09/23 08:16:51;;;;;;;2.28;0.90;;;15.50;99.90;;;;;;5097673;28;20051;-67
2023/09/23 08:19:18;;;;;;;2.42;1.05;;;15.40;99.90;;;;;;5100689;28;20062;-67
2023/09/23 08:21:45;;;;;;;2.50;1.00;;;15.30;99.90;;;;;;5110498;28;20035;-68
2023/09/23 08:24:11;;;;;;;1.30;0.90;;;15.30;99.90;;;;;;5098588;28;20028;-68
2023/09/23 08:26:37;;;;;;;2.08;0.60;;;15.30;99.90;;;;;;5100697;28;20464;-67
2023/09/23 08:29:02;;;;;;;1.83;0.80;;;15.30;99.90;;;;;;5105963;28;20030;-67
2023/09/23 08:31:28;;;;;;;0.88;0.70;;;15.30;99.90;;;;;;5098588;28;20044;-67
2023/09/23 08:33:54;;;;;;;3.85;0.77;;;15.50;99.90;;;;;;5098504;28;20063;-67
2023/09/23 08:36:20;;;;;;;2.08;0.60;;;15.40;99.90;;;;;;5084684;28;20031;-67
2023/09/23 08:38:45;;;;;;;2.42;0.63;;;15.50;99.90;;;;;;5104268;28;20020;-67
2023/09/23 08:41:15;;;;;;;3.53;0.90;;;15.60;99.90;;;;;;5093372;28;20107;-67
2023/09/23 08:43:42;;;;;;;1.65;0.68;;;15.60;99.90;;;;;;5098897;28;20035;-68
2023/09/23 08:46:11;;;;;;;1.52;0.57;;;15.60;99.90;;;;;;5089660;28;20065;-67
2023/09/23 08:48:38;;;;;;;1.33;0.73;;;15.70;99.90;;;;;;5106768;28;20023;-68
2023/09/23 08:51:08;;;;;;;2.00;1.00;;;15.70;99.90;;;;;;5095701;28;20384;-67
2023/09/23 08:53:37;;;;;;;1.27;0.45;;;15.70;99.90;;;;;;5102847;28;20084;-68
2023/09/23 08:56:05;;;;;;;2.42;0.80;;;15.70;99.90;;;;;;5109555;28;20027;-68
2023/09/23 08:58:31;;;;;;;3.05;1.30;;;15.80;99.90;;;;;;5095029;28;20050;-68
2023/09/23 09:00:56;;;;;;;2.67;0.77;;;15.80;99.90;;;;;;5093996;28;20383;-68
2023/09/23 09:03:22;;;;;;;1.23;0.80;;;15.80;99.90;;;;;;5106673;28;20027;-67
2023/09/23 09:05:48;;;;;;;1.98;0.82;;;15.90;99.90;;;;;;5091909;28;20085;-68
2023/09/23 09:08:14;;;;;;;1.25;0.50;;;15.90;99.90;;;;;;5080885;28;20495;-68
2023/09/23 09:10:40;;;;;;;2.67;0.90;;;16.00;99.90;;;;;;5082575;28;20071;-68
2023/09/23 09:13:07;;;;;;;1.63;0.82;;;16.10;99.90;;;;;;5109305;28;20746;-67
2023/09/23 09:15:37;;;;;;;2.10;0.75;;;16.10;99.90;;;;;;5100430;28;20074;-67
2023/09/23 09:18:03;;;;;;;3.30;0.85;;;16.10;99.90;;;;;;5102741;28;20535;-67
2023/09/23 09:20:29;;;;;;;2.45;0.85;;;16.10;99.90;;;;;;5103244;28;20031;-67
2023/09/23 09:22:55;;;;;;;3.65;0.85;;;16.20;99.90;;;;;;5105665;28;20350;-68
2023/09/23 09:25:21;;;;;;;2.60;0.90;;;16.30;99.90;;;;;;5094031;28;20035;-67
2023/09/23 09:27:47;;;;;;;3.50;0.95;;;16.40;99.90;;;;;;5102311;28;20028;-67
2023/09/23 09:30:13;;;;;;;2.75;0.95;;;16.60;99.90;;;;;;5103673;28;20032;-68
2023/09/23 09:32:43;;;;;;;2.83;1.45;;;16.60;99.90;;;;;;5094357;28;20036;-67
2023/09/23 09:35:20;;;;;;;1.52;0.68;;;16.70;99.90;;;;;;5095963;28;20142;-68
2023/09/23 09:37:47;;;;;;;4.00;0.75;;;16.70;99.90;;;;;;5107699;28;20058;-67
2023/09/23 09:40:17;;;;;;;2.05;0.90;;;16.80;99.90;;;;;;5109015;28;20032;-68
2023/09/23 09:42:54;;;;;;;2.50;0.80;;;16.80;99.90;;;;;;5096443;28;20056;-68
2023/09/23 09:45:20;;;;;;;2.20;0.85;;;16.90;99.90;;;;;;5094034;28;20044;-68
2023/09/23 09:47:49;;;;;;;3.42;0.80;;;17.00;99.90;;;;;;5093920;28;20034;-67
2023/09/23 09:50:15;;;;;;;3.17;1.00;;;17.10;99.90;;;;;;5097596;28;20088;-67
2023/09/23 09:52:44;;;;;;;3.33;0.93;;;17.10;99.90;;;;;;5098997;28;20473;-68
2023/09/23 09:55:15;;;;;;;2.00;0.90;;;17.10;99.90;;;;;;5106218;28;20016;-68
2023/09/23 09:57:41;;;;;;;1.63;0.47;;;17.20;99.90;;;;;;5099704;28;20340;-68
2023/09/23 10:00:34;;;;;;;4.15;1.38;;;17.20;99.90;;;;;;5097162;28;20046;-68
2023/09/23 10:03:06;;;;;;;4.93;0.90;;;17.30;99.90;;;;;;5101252;28;20031;-68
2023/09/23 10:05:40;;;;;;;5.03;0.70;;;17.40;99.90;;;;;;5099884;28;20074;-67
2023/09/23 10:08:12;;;;;;;2.97;1.02;;;17.50;99.90;;;;;;5099941;28;20030;-68
2023/09/23 10:10:43;;;;;;;3.22;0.95;;;17.70;99.90;;;;;;5104657;28;20068;-67
2023/09/23 10:13:13;;;;;;;3.78;0.93;;;17.80;99.90;;;;;;5112690;28;20460;-67
2023/09/23 10:15:40;;;;;;;2.15;0.90;;;18.00;99.90;;;;;;5103472;28;20024;-68
2023/09/23 10:18:17;;;;;;;2.13;0.82;;;18.10;99.90;;;;;;5098534;28;20463;-67
2023/09/23 10:20:56;;;;;;;2.42;0.80;;;18.10;99.90;;;;;;5107167;28;20028;-67
2023/09/23 10:23:22;;;;;;;4.03;1.00;;;18.20;99.90;;;;;;5104314;28;20084;-67
2023/09/23 10:25:50;;;;;;;5.20;1.00;;;18.20;99.90;;;;;;5102253;28;20300;-67
2023/09/23 10:28:24;;;;;;;3.63;1.00;;;18.10;99.90;;;;;;5107039;28;20096;-67
2023/09/23 10:31:00;;;;;;;1.42;0.68;;;18.40;99.90;;;;;;5102905;28;20024;-67
2023/09/23 10:33:27;;;;;;;3.45;1.02;;;18.60;99.90;;;;;;5096083;28;20201;-68
2023/09/23 10:35:53;;;;;;;3.25;1.10;;;18.60;99.90;;;;;;5104130;28;20019;-68
2023/09/23 10:38:23;;;;;;;1.17;0.60;;;18.60;99.90;;;;;;5108772;28;20032;-67
2023/09/23 10:40:55;;;;;;;3.50;0.77;;;18.60;98.70;;;;;;5109660;28;20051;-67
2023/09/23 10:43:21;;;;;;;2.85;0.80;;;18.70;98.90;;;;;;5098359;28;20070;-68
2023/09/23 10:45:48;;;;;;;0.90;0.65;;;18.90;98.50;;;;;;5101193;28;20044;-68
2023/09/23 10:48:15;;;;;;;6.53;1.40;;;19.00;98.40;;;;;;5107511;28;20054;-67
2023/09/23 10:50:41;;;;;;;1.75;0.82;;;19.00;97.50;;;;;;5098470;28;20032;-67
2023/09/23 10:53:08;;;;;;;4.65;1.13;;;19.00;97.80;;;;;;5102684;28;20020;-67
2023/09/23 10:55:34;;;;;;;3.78;0.93;;;19.10;97.20;;;;;;5112085;28;20027;-67
2023/09/23 10:58:04;;;;;;;3.20;1.35;;;19.30;97.60;;;;;;5101218;28;20028;-67
2023/09/23 11:00:33;;;;;;;2.05;1.05;;;;;;;;;;5097178;28;20027;-67
2023/09/23 11:03:09;;;;;;;3.37;1.20;;;;;;;;;;5106336;28;20086;-68
2023/09/23 11:05:39;;;;;;;1.65;1.27;;;;;;;;;;5102900;28;20056;-67
2023/09/23 11:08:14;;;;;;;3.43;1.00;;;;;;;;;;5099323;28;20084;-67
2023/09/23 11:10:41;;;;;;;97.35;66.75;;;;;;;;;;5102781;28;20028;-68
2023/09/23 11:13:08;;;;;;;19.63;12.35;;;;;;;;;;5111590;28;20023;-67
2023/09/23 11:15:36;;;;;;;5.68;2.20;;;;;;;;;;5102590;28;20030;-67
2023/09/23 11:18:02;;;;;;;3.78;1.10;;;;;;;;;;5099841;28;20026;-67
2023/09/23 11:20:32;;;;;;;2.15;1.10;;;;;;;;;;5105839;28;20028;-67
2023/09/23 11:22:59;;;;;;;2.17;0.93;;;;;;;;;;5080903;28;20035;-68
2023/09/23 11:25:25;;;;;;;1.55;0.88;;;;;;;;;;5096656;28;20031;-67
2023/09/23 11:27:51;;;;;;;2.28;1.10;;;;;;;;;;5107415;28;20020;-68
2023/09/23 11:30:17;;;;;;;2.17;0.75;;;;;;;;;;5107372;28;20016;-68
2023/09/23 11:32:43;;;;;;;2.95;1.00;;;;;;;;;;5096879;28;20173;-68
2023/09/23 11:35:09;;;;;;;2.95;1.27;;;;;;;;;;5098230;28;20477;-67
2023/09/23 11:37:35;;;;;;;1.85;1.00;;;;;;;;;;5109633;28;20095;-67
2023/09/23 11:40:03;;;;;;;1.90;1.08;;;;;;;;;;5098085;28;20349;-67
2023/09/23 11:42:29;;;;;;;3.55;0.90;;;;;;;;;;5095191;28;20036;-67
2023/09/23 11:44:55;;;;;;;1.55;0.88;;;;;;;;;;5099294;28;20089;-68
2023/09/23 11:47:22;;;;;;;5.97;1.20;;;;;;;;;;5099623;28;20027;-67
2023/09/23 11:49:51;;;;;;;1.60;0.70;;;;;;;;;;5100815;28;20028;-68
2023/09/23 11:52:17;;;;;;;1.30;0.80;;;;;;;;;;5102728;28;20028;-68
2023/09/23 11:54:44;;;;;;;3.08;1.30;;;;;;;;;;5104814;28;20024;-68
2023/09/23 11:57:10;;;;;;;4.03;0.85;;;;;;;;;;5104580;28;20412;-68
2023/09/23 11:59:36;;;;;;;3.33;1.10;;;;;;;;;;5095370;28;20100;-68
2023/09/23 12:02:02;;;;;;;1.65;0.90;;;;;;;;;;5105679;28;20529;-68
2023/09/23 12:04:28;;;;;;;2.83;1.05;;;;;;;;;;5106076;28;20067;-68
2023/09/23 12:06:54;;;;;;;1.83;0.82;;;;;;;;;;5095502;28;20100;-68
2023/09/23 12:09:20;;;;;;;2.38;0.93;;;;;;;;;;5099084;28;20385;-68
2023/09/23 12:11:48;;;;;;;2.60;0.90;;;;;;;;;;5088704;28;20034;-68
2023/09/23 12:14:15;;;;;;;1.08;0.80;;;;;;;;;;5110202;28;20053;-69
2023/09/23 12:16:41;;;;;;;2.60;0.80;;;;;;;;;;5091888;28;20457;-68
2023/09/23 12:19:07;;;;;;;2.55;0.98;;;;;;;;;;5101740;28;20024;-68
2023/09/23 12:21:32;;;;;;;1.67;0.88;;;;;;;;;;5110343;28;20032;-68
2023/09/23 12:23:59;;;;;;;4.00;1.27;;;;;;;;;;5097907;28;20044;-68
2023/09/23 12:26:28;;;;;;;3.55;1.10;;;;;;;;;;5101465;28;20087;-68
2023/09/23 12:28:54;;;;;;;1.25;0.80;;;;;;;;;;5104517;28;20028;-68
2023/09/23 12:31:21;;;;;;;1.50;0.90;;;;;;;;;;5098792;28;20388;-68
2023/09/23 12:33:51;;;;;;;3.00;1.10;;;;;;;;;;5095611;28;20028;-68
2023/09/23 12:36:17;;;;;;;3.33;1.00;;;;;;;;;;5104115;28;20026;-68
2023/09/23 12:38:43;;;;;;;2.50;0.93;;;;;;;;;;5106972;28;20524;-68
2023/09/23 12:41:09;;;;;;;1.70;1.23;;;;;;;;;;5103743;28;20055;-68
2023/09/23 12:43:35;;;;;;;1.75;1.00;;;;;;;;;;5095076;28;20456;-68
2023/09/23 12:46:01;;;;;;;1.98;0.77;;;;;;;;;;5097005;28;20044;-68
2023/09/23 12:48:28;;;;;;;2.92;0.90;;;;;;;;;;5106179;28;20711;-68
2023/09/23 12:50:54;;;;;;;2.25;1.10;;;;;;;;;;5094954;28;20036;-68
2023/09/23 12:53:21;;;;;;;2.10;0.70;;;;;;;;;;5102232;28;20023;-68
2023/09/23 12:55:47;;;;;;;1.88;0.90;;;;;;;;;;5110312;28;20069;-68
2023/09/23 12:58:14;;;;;;;4.40;1.17;;;;;;;;;;5098328;28;20024;-68
2023/09/23 13:00:41;;;;;;;1.90;1.17;;;;;;;;;;5099550;28;20101;-68
2023/09/23 13:03:09;;;;;;;2.90;1.23;;;;;;;;;;5105064;28;20468;-68
2023/09/23 13:05:35;;;;;;;2.60;0.80;;;;;;;;;;5101222;28;20016;-68